Time;durP1;ratioP1;P1;durP2;ratioP2;P2;SDS_P1;SDS_P2;PMS_P1;PMS_P2;Temp;Humidity;BMP_temperature;BMP_pressure;BME280_temperature;BME280_humidity;BME280_pressure;Samples;Min_cycle;Max_cycle;Signal;HPM_P1;HPM_P2
2021/10/10 00:01:34;;;;;;;12.48;6.22;;;;;;;;;;5072479;28;20028;-50
2021/10/10 00:04:00;;;;;;;11.05;5.72;;;;;;;;;;5074364;28;20071;-51
2021/10/10 00:06:26;;;;;;;12.63;6.10;;;;;;;;;;5074159;28;20041;-52
2021/10/10 00:08:52;;;;;;;8.70;5.47;;;;;;;;;;5073830;28;20111;-53
2021/10/10 00:11:18;;;;;;;12.02;6.35;;;;;;;;;;5073394;28;20107;-51
2021/10/10 00:13:44;;;;;;;11.10;6.15;;;;;;;;;;5075083;28;20086;-51
2021/10/10 00:16:10;;;;;;;10.85;5.55;;;;;;;;;;5060064;28;20036;-49
2021/10/10 00:18:36;;;;;;;11.95;6.30;;;;;;;;;;5065892;28;20036;-52
2021/10/10 00:21:02;;;;;;;12.65;6.03;;;;;;;;;;5070687;28;20021;-49
2021/10/10 00:23:28;;;;;;;13.82;7.22;;;;;;;;;;5071890;28;20033;-50
2021/10/10 00:25:54;;;;;;;13.48;6.55;;;;;;;;;;5066411;28;20143;-49
2021/10/10 00:28:20;;;;;;;14.70;6.55;;;;;;;;;;5069539;28;20143;-49
2021/10/10 00:30:46;;;;;;;11.90;6.70;;;;;;;;;;5069054;28;20548;-49
2021/10/10 00:33:12;;;;;;;13.77;6.57;;;;;;;;;;5071437;28;20670;-49
2021/10/10 00:35:38;;;;;;;17.38;6.78;;;;;;;;;;5069129;28;20037;-51
2021/10/10 00:38:04;;;;;;;12.18;6.38;;;;;;;;;;5073889;28;20834;-49
2021/10/10 00:40:30;;;;;;;13.77;6.68;;;;;;;;;;5073369;28;20020;-49
2021/10/10 00:42:56;;;;;;;14.48;6.78;;;;;;;;;;5073926;28;20115;-49
2021/10/10 00:45:22;;;;;;;13.57;7.32;;;;;;;;;;5071739;28;20096;-49
2021/10/10 00:47:48;;;;;;;13.93;7.00;;;;;;;;;;5070646;28;20024;-49
2021/10/10 00:50:14;;;;;;;13.07;6.40;;;;;;;;;;5070106;28;20021;-51
2021/10/10 00:52:41;;;;;;;14.52;7.35;;;;;;;;;;5068583;28;20031;-50
2021/10/10 00:55:08;;;;;;;12.93;7.07;;;;;;;;;;5068999;28;20479;-49
2021/10/10 00:57:35;;;;;;;13.55;6.88;;;;;;;;;;5070969;28;20433;-50
2021/10/10 01:00:02;;;;;;;15.30;7.07;;;;;;;;;;5066924;28;20024;-50
2021/10/10 01:02:28;;;;;;;14.88;7.63;;;;;;;;;;5068257;28;20147;-51
2021/10/10 01:04:54;;;;;;;11.25;6.70;;;;;;;;;;5072012;28;20052;-50
2021/10/10 01:07:21;;;;;;;14.18;7.82;;;;;;;;;;5066962;28;20109;-49
2021/10/10 01:09:47;;;;;;;17.67;8.50;;;;;;;;;;5071652;28;20511;-51
2021/10/10 01:12:13;;;;;;;16.13;7.63;;;;;;;;;;5070147;28;20037;-50
2021/10/10 01:14:39;;;;;;;14.98;6.78;;;;;;;;;;5073187;28;20033;-50
2021/10/10 01:17:05;;;;;;;15.82;7.07;;;;;;;;;;5069300;28;20044;-49
2021/10/10 01:19:32;;;;;;;15.77;7.72;;;;;;;;;;5072199;28;20365;-48
2021/10/10 01:21:59;;;;;;;16.10;7.72;;;;;;;;;;5069544;28;20107;-49
2021/10/10 01:24:25;;;;;;;16.52;7.65;;;;;;;;;;5070427;28;20045;-49
2021/10/10 01:26:51;;;;;;;13.48;7.60;;;;;;;;;;5067856;28;20162;-50
2021/10/10 01:29:17;;;;;;;17.55;8.40;;;;;;;;;;5072755;28;20044;-51
2021/10/10 01:31:43;;;;;;;19.02;8.13;;;;;;;;;;5071347;28;20029;-49
2021/10/10 01:34:09;;;;;;;18.63;7.68;;;;;;;;;;5071432;28;20039;-53
2021/10/10 01:36:36;;;;;;;15.35;8.32;;;;;;;;;;5073429;28;20032;-51
2021/10/10 01:39:02;;;;;;;15.65;7.68;;;;;;;;;;5071276;28;20685;-54
2021/10/10 01:41:28;;;;;;;17.40;7.82;;;;;;;;;;5072841;28;20028;-50
2021/10/10 01:43:54;;;;;;;15.02;7.93;;;;;;;;;;5070874;28;20578;-51
2021/10/10 01:46:20;;;;;;;21.75;8.15;;;;;;;;;;5067424;28;20036;-52
2021/10/10 01:48:47;;;;;;;12.90;7.00;;;;;;;;;;5065282;28;20032;-51
2021/10/10 01:51:13;;;;;;;15.77;7.57;;;;;;;;;;5073202;28;20545;-49
2021/10/10 01:53:40;;;;;;;18.23;8.05;;;;;;;;;;5072933;28;20490;-49
2021/10/10 01:56:06;;;;;;;19.67;8.25;;;;;;;;;;5067532;28;20397;-50
2021/10/10 01:58:32;;;;;;;17.02;8.38;;;;;;;;;;5067338;28;20021;-49
2021/10/10 02:00:58;;;;;;;14.40;7.65;;;;;;;;;;5066145;28;20385;-50
2021/10/10 02:03:24;;;;;;;16.33;7.72;;;;;;;;;;5071620;28;20441;-50
2021/10/10 02:05:50;;;;;;;16.60;7.80;;;;;;;;;;5067427;28;20033;-50
2021/10/10 02:08:17;;;;;;;16.45;8.10;;;;;;;;;;5061599;28;20582;-50
2021/10/10 02:10:43;;;;;;;17.75;7.97;;;;;;;;;;5067823;28;20027;-50
2021/10/10 02:13:09;;;;;;;16.35;8.30;;;;;;;;;;5060850;28;20072;-50
2021/10/10 02:15:36;;;;;;;15.65;7.50;;;;;;;;;;5069464;28;20040;-49
2021/10/10 02:18:02;;;;;;;18.30;7.28;;;;;;;;;;5062875;28;20689;-50
2021/10/10 02:20:28;;;;;;;16.67;8.30;;;;;;;;;;5071514;28;20040;-49
2021/10/10 02:22:54;;;;;;;16.73;8.48;;;;;;;;;;5070317;28;20052;-51
2021/10/10 02:25:20;;;;;;;16.02;7.85;;;;;;;;;;5060065;28;20024;-50
2021/10/10 02:27:46;;;;;;;19.23;8.18;;;;;;;;;;5072148;28;20029;-50
2021/10/10 02:30:12;;;;;;;18.40;8.82;;;;;;;;;;5070060;28;20032;-51
2021/10/10 02:32:38;;;;;;;14.88;8.32;;;;;;;;;;5070247;28;20063;-52
2021/10/10 02:35:05;;;;;;;14.45;7.57;;;;;;;;;;5069388;28;20052;-49
2021/10/10 02:37:31;;;;;;;16.10;8.48;;;;;;;;;;5070407;28;20025;-50
2021/10/10 02:39:57;;;;;;;19.13;8.88;;;;;;;;;;5066616;28;20041;-50
2021/10/10 02:42:23;;;;;;;18.42;8.60;;;;;;;;;;5068262;28;20025;-50
2021/10/10 02:44:49;;;;;;;17.67;8.07;;;;;;;;;;5069218;28;20024;-49
2021/10/10 02:47:15;;;;;;;16.05;8.25;;;;;;;;;;5071914;28;20495;-49
2021/10/10 02:49:41;;;;;;;16.52;8.27;;;;;;;;;;5063431;28;20029;-49
2021/10/10 02:52:07;;;;;;;15.57;7.75;;;;;;;;;;5070944;28;20036;-49
2021/10/10 02:54:33;;;;;;;15.43;8.48;;;;;;;;;;5073335;28;20370;-49
2021/10/10 02:56:59;;;;;;;18.10;9.00;;;;;;;;;;5065850;28;20038;-49
2021/10/10 02:59:25;;;;;;;17.98;8.70;;;;;;;;;;5071632;28;20036;-49
2021/10/10 03:01:51;;;;;;;22.30;9.52;;;;;;;;;;5069468;28;20033;-50
2021/10/10 03:04:17;;;;;;;17.40;8.98;;;;;;;;;;5069319;28;20039;-50
2021/10/10 03:06:43;;;;;;;17.90;9.60;;;;;;;;;;5071363;28;20024;-49
2021/10/10 03:09:09;;;;;;;18.98;8.10;;;;;;;;;;5071404;28;20033;-50
2021/10/10 03:11:35;;;;;;;18.73;8.88;;;;;;;;;;5066509;28;20377;-55
2021/10/10 03:14:01;;;;;;;17.50;8.48;;;;;;;;;;5062062;28;20021;-50
2021/10/10 03:16:27;;;;;;;22.90;8.88;;;;;;;;;;5068403;28;20123;-49
2021/10/10 03:18:53;;;;;;;17.80;8.75;;;;;;;;;;5062933;28;20067;-51
2021/10/10 03:21:19;;;;;;;16.80;8.60;;;;;;;;;;5069399;28;20037;-53
2021/10/10 03:23:45;;;;;;;17.38;8.68;;;;;;;;;;5070541;28;20016;-49
2021/10/10 03:26:12;;;;;;;18.13;8.38;;;;;;;;;;5064142;28;20061;-51
2021/10/10 03:28:38;;;;;;;19.48;8.73;;;;;;;;;;5071600;28;20056;-51
2021/10/10 03:31:04;;;;;;;19.40;9.25;;;;;;;;;;5064607;28;20075;-49
2021/10/10 03:33:30;;;;;;;18.92;8.82;;;;;;;;;;5070794;28;20032;-53
2021/10/10 03:35:56;;;;;;;18.63;9.07;;;;;;;;;;5066841;28;20048;-52
2021/10/10 03:38:22;;;;;;;20.25;9.70;;;;;;;;;;5066396;28;20031;-52
2021/10/10 03:40:48;;;;;;;19.95;8.95;;;;;;;;;;5071321;28;20081;-49
2021/10/10 03:43:14;;;;;;;19.00;9.43;;;;;;;;;;5070865;28;20029;-50
2021/10/10 03:45:40;;;;;;;16.63;8.73;;;;;;;;;;5070648;28;20112;-50
2021/10/10 03:48:06;;;;;;;22.38;10.18;;;;;;;;;;5070810;28;20368;-51
2021/10/10 03:50:32;;;;;;;17.42;9.20;;;;;;;;;;5070509;28;20119;-49
2021/10/10 03:52:58;;;;;;;17.67;9.40;;;;;;;;;;5070818;28;20090;-49
2021/10/10 03:57:54;;;;;;;16.00;8.27;;;;;;;;;;5070875;28;20500;-49
2021/10/10 04:00:20;;;;;;;17.63;9.05;;;;;;;;;;5070697;28;20083;-50
2021/10/10 04:02:46;;;;;;;17.90;9.18;;;;;;;;;;5070886;28;20020;-51
2021/10/10 04:05:25;;;;;;;21.08;9.45;;;;;;;;;;5069378;28;20040;-49
2021/10/10 04:07:51;;;;;;;18.13;9.05;;;;;;;;;;5066375;28;20037;-52
2021/10/10 04:10:18;;;;;;;23.08;10.25;;;;;;;;;;5068873;28;20370;-51
2021/10/10 04:12:44;;;;;;;18.02;8.80;;;;;;;;;;5068890;28;20032;-50
2021/10/10 04:15:10;;;;;;;20.23;10.35;;;;;;;;;;5070340;28;20060;-50
2021/10/10 04:17:36;;;;;;;20.95;9.65;;;;;;;;;;5063719;28;20029;-50
2021/10/10 04:20:03;;;;;;;19.55;9.10;;;;;;;;;;5069753;28;20102;-51
2021/10/10 04:22:29;;;;;;;23.83;10.88;;;;;;;;;;5067602;28;20083;-50
2021/10/10 04:24:55;;;;;;;18.08;9.15;;;;;;;;;;5069381;28;20055;-50
2021/10/10 04:27:21;;;;;;;21.95;10.35;;;;;;;;;;5073754;28;20025;-49
2021/10/10 04:29:47;;;;;;;20.40;9.85;;;;;;;;;;5072022;28;20060;-50
2021/10/10 04:32:13;;;;;;;23.38;10.73;;;;;;;;;;5070341;28;20036;-50
2021/10/10 04:34:39;;;;;;;26.58;10.32;;;;;;;;;;5072589;28;20033;-49
2021/10/10 04:37:06;;;;;;;24.40;9.02;;;;;;;;;;5068654;28;20396;-49
2021/10/10 04:39:32;;;;;;;19.92;9.75;;;;;;;;;;5074273;28;20047;-49
2021/10/10 04:41:58;;;;;;;20.70;10.10;;;;;;;;;;5074262;28;20077;-51
2021/10/10 04:44:25;;;;;;;18.48;9.10;;;;;;;;;;5073948;28;20036;-50
2021/10/10 04:46:51;;;;;;;24.05;10.50;;;;;;;;;;5072026;28;20028;-52
2021/10/10 04:49:16;;;;;;;23.67;10.45;;;;;;;;;;5074066;28;20037;-50
2021/10/10 04:51:42;;;;;;;23.10;10.10;;;;;;;;;;5069216;28;20039;-50
2021/10/10 04:54:08;;;;;;;22.05;10.27;;;;;;;;;;5074543;28;20024;-49
2021/10/10 04:56:34;;;;;;;24.50;10.35;;;;;;;;;;5072839;28;20536;-49
2021/10/10 04:59:00;;;;;;;26.75;11.80;;;;;;;;;;5068900;28;20051;-49
2021/10/10 05:01:26;;;;;;;20.58;9.27;;;;;;;;;;5067795;28;20025;-49
2021/10/10 05:03:52;;;;;;;25.00;10.48;;;;;;;;;;5066345;28;20389;-50
2021/10/10 05:06:18;;;;;;;21.88;9.60;;;;;;;;;;5071595;28;20035;-52
2021/10/10 05:08:44;;;;;;;23.67;10.77;;;;;;;;;;5073656;28;20158;-50
2021/10/10 05:11:10;;;;;;;23.15;10.52;;;;;;;;;;5063436;28;20040;-50
2021/10/10 05:13:36;;;;;;;22.85;9.80;;;;;;;;;;5073579;28;20043;-49
2021/10/10 05:16:03;;;;;;;21.92;10.18;;;;;;;;;;5069063;28;20090;-49
2021/10/10 05:18:29;;;;;;;18.77;9.52;;;;;;;;;;5068187;28;20072;-50
2021/10/10 05:20:55;;;;;;;23.83;10.55;;;;;;;;;;5070766;28;20063;-50
2021/10/10 05:23:21;;;;;;;23.30;10.35;;;;;;;;;;5071482;28;20035;-51
2021/10/10 05:25:47;;;;;;;21.63;9.90;;;;;;;;;;5069035;28;20469;-49
2021/10/10 05:28:13;;;;;;;24.08;10.93;;;;;;;;;;5072438;28;20040;-52
2021/10/10 05:30:39;;;;;;;26.20;11.27;;;;;;;;;;5072048;28;20468;-50
2021/10/10 05:33:05;;;;;;;21.98;11.13;;;;;;;;;;5070016;28;20113;-52
2021/10/10 05:35:31;;;;;;;25.77;11.43;;;;;;;;;;5069704;28;20109;-51
2021/10/10 05:37:57;;;;;;;25.30;11.95;;;;;;;;;;5073371;28;20044;-50
2021/10/10 05:40:23;;;;;;;24.98;11.60;;;;;;;;;;5068004;28;20013;-49
2021/10/10 05:42:49;;;;;;;27.08;11.30;;;;;;;;;;5070389;28;20036;-50
2021/10/10 05:45:15;;;;;;;20.92;11.60;;;;;;;;;;5072263;28;20100;-53
2021/10/10 05:47:41;;;;;;;26.88;11.45;;;;;;;;;;5071355;28;20032;-50
2021/10/10 05:50:07;;;;;;;23.45;11.25;;;;;;;;;;5071398;28;20453;-51
2021/10/10 05:52:34;;;;;;;24.98;11.50;;;;;;;;;;5071698;28;20093;-49
2021/10/10 05:55:00;;;;;;;22.33;11.40;;;;;;;;;;5071266;28;20511;-50
2021/10/10 05:57:42;;;;;;;23.52;11.55;;;;;;;;;;5071862;28;20028;-50
2021/10/10 06:00:08;;;;;;;24.88;11.25;;;;;;;;;;5069801;28;20048;-50
2021/10/10 06:02:34;;;;;;;23.85;11.55;;;;;;;;;;5061945;28;20025;-51
2021/10/10 06:05:00;;;;;;;23.52;10.35;;;;;;;;;;5069162;28;20048;-50
2021/10/10 06:07:26;;;;;;;26.45;10.63;;;;;;;;;;5072652;28;20036;-51
2021/10/10 06:09:52;;;;;;;30.85;12.15;;;;;;;;;;5065478;28;20757;-50
2021/10/10 06:12:18;;;;;;;26.10;11.60;;;;;;;;;;5071029;28;20035;-50
2021/10/10 06:14:47;;;;;;;21.45;11.18;;;;;;;;;;5070563;28;20697;-50
2021/10/10 06:17:15;;;;;;;25.15;10.43;;;;;;;;;;5069628;28;20040;-49
2021/10/10 06:19:41;;;;;;;27.38;11.82;;;;;;;;;;5062600;28;20036;-52
2021/10/10 06:22:07;;;;;;;26.13;12.07;;;;;;;;;;5071945;28;20556;-50
2021/10/10 06:24:33;;;;;;;23.55;11.25;;;;;;;;;;5065846;28;20036;-49
2021/10/10 06:26:59;;;;;;;28.05;11.95;;;;;;;;;;5067173;28;20356;-49
2021/10/10 06:29:25;;;;;;;24.70;10.55;;;;;;;;;;5071738;28;20028;-54
2021/10/10 06:31:51;;;;;;;25.70;11.07;;;;;;;;;;5071001;28;20047;-49
2021/10/10 06:34:17;;;;;;;30.83;12.77;;;;;;;;;;5070532;28;20040;-49
2021/10/10 06:36:43;;;;;;;25.23;10.70;;;;;;;;;;5064493;28;20029;-52
2021/10/10 06:39:09;;;;;;;29.92;12.88;;;;;;;;;;5064609;28;20028;-50
2021/10/10 06:41:35;;;;;;;28.65;12.45;;;;;;;;;;5063019;28;20488;-51
2021/10/10 06:44:01;;;;;;;23.38;10.90;;;;;;;;;;5069910;28;20027;-50
2021/10/10 06:46:27;;;;;;;27.50;11.27;;;;;;;;;;5070901;28;20047;-49
2021/10/10 06:48:53;;;;;;;21.05;10.38;;;;;;;;;;5070614;28;20025;-52
2021/10/10 06:51:18;;;;;;;25.73;11.73;;;;;;;;;;5063712;28;20096;-49
2021/10/10 06:53:44;;;;;;;21.95;11.30;;;;;;;;;;5071761;28;20032;-49
2021/10/10 06:56:10;;;;;;;27.42;10.88;;;;;;;;;;5072728;28;20040;-50
2021/10/10 06:58:36;;;;;;;22.88;11.48;;;;;;;;;;5071847;28;20024;-51
2021/10/10 07:01:02;;;;;;;22.15;11.75;;;;;;;;;;5065346;28;20115;-50
2021/10/10 07:03:28;;;;;;;26.42;11.98;;;;;;;;;;5060888;28;20031;-50
2021/10/10 07:05:54;;;;;;;28.80;11.93;;;;;;;;;;5069293;28;20536;-51
2021/10/10 07:08:20;;;;;;;23.65;11.52;;;;;;;;;;5059846;28;20029;-50
2021/10/10 07:10:46;;;;;;;29.25;11.75;;;;;;;;;;5066647;28;20043;-50
2021/10/10 07:13:12;;;;;;;26.63;10.88;;;;;;;;;;5066353;28;20032;-50
2021/10/10 07:15:38;;;;;;;24.98;11.05;;;;;;;;;;5067860;28;20025;-49
2021/10/10 07:18:06;;;;;;;24.67;11.35;;;;;;;;;;5070422;28;20025;-50
2021/10/10 07:23:55;;;;;;;24.90;11.13;;;;;;;;;;5039918;28;20119;-49
2021/10/10 07:26:20;;;;;;;27.15;11.50;;;;;;;;;;5066050;28;20037;-49
2021/10/10 07:28:46;;;;;;;22.92;10.13;;;;;;;;;;5065331;28;20032;-49
2021/10/10 07:31:12;;;;;;;23.35;10.65;;;;;;;;;;5066821;28;20067;-49
2021/10/10 07:33:40;;;;;;;22.40;12.20;;;;;;;;;;5068841;28;20056;-49
2021/10/10 07:36:06;;;;;;;22.58;10.75;;;;;;;;;;5066110;28;20060;-52
2021/10/10 07:38:32;;;;;;;28.13;12.13;;;;;;;;;;5065663;28;20150;-50
2021/10/10 07:40:59;;;;;;;22.08;10.90;;;;;;;;;;5067573;28;20021;-49
2021/10/10 07:43:26;;;;;;;21.13;10.15;;;;;;;;;;5070853;28;20097;-50
2021/10/10 07:45:52;;;;;;;28.67;11.18;;;;;;;;;;5069936;28;20384;-51
2021/10/10 07:48:18;;;;;;;19.88;9.90;;;;;;;;;;5064329;28;20055;-51
2021/10/10 07:50:46;;;;;;;24.90;11.30;;;;;;;;;;5069571;28;20103;-53
2021/10/10 07:53:12;;;;;;;22.60;10.13;;;;;;;;;;5069198;28;20024;-49
2021/10/10 07:55:38;;;;;;;23.73;9.90;;;;;;;;;;5068608;28;20017;-52
2021/10/10 07:58:04;;;;;;;27.23;11.20;;;;;;;;;;5070737;28;20021;-49
2021/10/10 08:00:30;;;;;;;21.30;9.98;;;;;;;;;;5070471;28;20029;-49
2021/10/10 08:02:58;;;;;;;22.95;10.73;;;;;;;;;;5073547;28;20021;-51
2021/10/10 08:05:24;;;;;;;18.70;9.55;;;;;;;;;;5070767;28;20036;-53
2021/10/10 08:07:51;;;;;;;22.83;9.52;;;;;;;;;;5072767;28;20040;-52
2021/10/10 08:10:17;;;;;;;22.38;10.38;;;;;;;;;;5069612;28;20551;-51
2021/10/10 08:12:43;;;;;;;20.08;10.23;;;;;;;;;;5074580;28;20111;-54
2021/10/10 08:15:10;;;;;;;19.63;9.40;;;;;;;;;;5074845;28;20085;-50
2021/10/10 08:17:36;;;;;;;19.25;9.55;;;;;;;;;;5074142;28;20032;-51
2021/10/10 08:20:03;;;;;;;23.20;9.90;;;;;;;;;;5073118;28;20040;-50
2021/10/10 08:22:29;;;;;;;20.80;10.02;;;;;;;;;;5073440;28;20028;-50
2021/10/10 08:24:55;;;;;;;20.17;10.27;;;;;;;;;;5072834;28;20021;-51
2021/10/10 08:27:22;;;;;;;19.00;9.55;;;;;;;;;;5070273;28;20048;-51
2021/10/10 08:29:48;;;;;;;20.02;9.00;;;;;;;;;;5069846;28;20024;-50
2021/10/10 08:32:14;;;;;;;20.20;8.55;;;;;;;;;;5073759;28;20029;-52
2021/10/10 08:34:40;;;;;;;21.75;9.98;;;;;;;;;;5068081;28;20103;-53
2021/10/10 08:37:06;;;;;;;18.67;9.10;;;;;;;;;;5073706;28;20103;-50
2021/10/10 08:39:32;;;;;;;18.38;8.13;;;;;;;;;;5070214;28;20041;-52
2021/10/10 08:42:00;;;;;;;17.92;8.35;;;;;;;;;;5073174;28;20028;-54
2021/10/10 08:44:32;;;;;;;18.10;8.25;;;;;;;;;;5069390;28;20056;-50
2021/10/10 08:47:03;;;;;;;16.27;7.82;;;;;;;;;;5073591;28;20037;-49
2021/10/10 08:49:30;;;;;;;18.10;8.90;;;;;;;;;;5070527;28;20785;-53
2021/10/10 08:51:56;;;;;;;18.77;8.13;;;;;;;;;;5071688;28;20021;-51
2021/10/10 08:54:22;;;;;;;15.85;7.65;;;;;;;;;;5070161;28;20032;-50
2021/10/10 08:56:50;;;;;;;16.92;8.18;;;;;;;;;;5071778;28;20112;-53
2021/10/10 08:59:16;;;;;;;15.10;8.27;;;;;;;;;;5068875;28;20453;-51
2021/10/10 09:01:42;;;;;;;16.15;8.00;;;;;;;;;;5071328;28;20025;-51
2021/10/10 09:04:08;;;;;;;15.48;7.53;;;;;;;;;;5073626;28;20048;-50
2021/10/10 09:06:40;;;;;;;19.98;8.48;;;;;;;;;;5071064;28;20036;-53
2021/10/10 09:09:24;;;;;;;21.17;8.30;;;;;;;;;;5071039;28;20138;-49
2021/10/10 09:11:50;;;;;;;17.00;8.40;;;;;;;;;;5071026;28;20103;-49
2021/10/10 09:14:16;;;;;;;15.10;7.22;;;;;;;;;;5070064;28;20111;-49
2021/10/10 09:16:42;;;;;;;17.10;8.32;;;;;;;;;;5069066;28;20043;-50
2021/10/10 09:19:28;;;;;;;16.17;8.25;;;;;;;;;;5072232;28;20055;-50
2021/10/10 09:22:00;;;;;;;13.63;6.90;;;;;;;;;;5069712;28;20067;-50
2021/10/10 09:24:27;;;;;;;17.52;7.97;;;;;;;;;;5066689;28;20467;-49
2021/10/10 09:26:53;;;;;;;14.77;7.30;;;;;;;;;;5071132;28;20043;-51
2021/10/10 09:29:33;;;;;;;17.80;7.15;;;;;;;;;;5070393;28;20112;-49
2021/10/10 09:32:13;;;;;;;13.20;6.00;;;;;;;;;;5070734;28;20077;-50
2021/10/10 09:34:40;;;;;;;12.70;6.22;;;;;;;;;;5070822;28;20036;-51
2021/10/10 09:37:07;;;;;;;12.02;5.97;;;;;;;;;;5072104;28;20031;-50
2021/10/10 09:39:44;;;;;;;13.63;6.10;;;;;;;;;;5069897;28;20047;-50
2021/10/10 09:42:10;;;;;;;12.43;5.18;;;;;;;;;;5070873;28;20082;-49
2021/10/10 09:44:45;;;;;;;13.35;5.63;;;;;;;;;;5067587;28;20021;-49
2021/10/10 09:47:12;;;;;;;10.57;4.72;;;;;;;;;;5060687;28;20530;-50
2021/10/10 09:49:38;;;;;;;18.95;7.05;;;;;;;;;;5069046;28;20035;-50
2021/10/10 09:52:10;;;;;;;13.88;5.70;;;;;;;;;;5069612;28;20029;-51
2021/10/10 09:54:53;;;;;;;12.57;4.63;;;;;;;;;;5072698;28;20037;-53
2021/10/10 09:57:20;;;;;;;10.55;5.20;;;;;;;;;;5067706;28;20815;-50
2021/10/10 09:59:46;;;;;;;11.70;4.82;;;;;;;;;;5065882;28;20033;-50
2021/10/10 10:02:12;;;;;;;10.90;4.43;;;;;;;;;;5062085;28;20033;-50
2021/10/10 10:04:45;;;;;;;8.95;4.60;;;;;;;;;;5068860;28;20017;-51
2021/10/10 10:07:15;;;;;;;9.45;4.63;;;;;;;;;;5064171;28;20032;-49
2021/10/10 10:09:42;;;;;;;10.68;4.55;;;;;;;;;;5073963;28;20020;-51
2021/10/10 10:12:08;;;;;;;6.72;4.30;;;;;;;;;;5068172;28;20078;-50
2021/10/10 10:14:34;;;;;;;9.10;4.07;;;;;;;;;;5071604;28;20381;-49
2021/10/10 10:17:01;;;;;;;8.40;4.13;;;;;;;;;;5071874;28;20051;-51
2021/10/10 10:19:28;;;;;;;9.65;4.18;;;;;;;;;;5068744;28;20505;-52
2021/10/10 10:21:55;;;;;;;8.23;4.22;;;;;;;;;;5071272;28;20504;-50
2021/10/10 10:24:24;;;;;;;7.93;4.40;;;;;;;;;;5066719;28;20107;-51
2021/10/10 10:26:51;;;;;;;6.05;3.65;;;;;;;;;;5066949;28;20031;-50
2021/10/10 10:29:24;;;;;;;9.40;3.67;;;;;;;;;;5071696;28;20408;-50
2021/10/10 10:31:50;;;;;;;10.10;4.05;;;;;;;;;;5072172;28;20016;-49
2021/10/10 10:34:19;;;;;;;7.75;4.45;;;;;;;;;;5069449;28;20483;-49
2021/10/10 10:36:51;;;;;;;8.95;4.20;;;;;;;;;;5067407;28;20029;-50
2021/10/10 10:39:39;;;;;;;5.63;3.42;;;;;;;;;;5068614;28;20023;-49
2021/10/10 10:42:06;;;;;;;7.15;3.55;;;;;;;;;;5057025;28;20022;-49
2021/10/10 10:44:33;;;;;;;9.88;4.00;;;;;;;;;;5065381;28;20048;-50
2021/10/10 10:47:03;;;;;;;10.15;3.67;;;;;;;;;;5070602;28;20123;-49
2021/10/10 10:49:48;;;;;;;6.72;3.75;;;;;;;;;;5067575;28;20687;-50
2021/10/10 10:52:25;;;;;;;6.50;3.38;;;;;;;;;;5072887;28;20033;-51
2021/10/10 10:54:54;;;;;;;9.18;3.58;;;;;;;;;;5059361;28;20077;-52
2021/10/10 10:57:30;;;;;;;8.93;3.25;;;;;;;;;;5064597;28;20044;-49
2021/10/10 11:00:09;;;;;;;6.85;2.88;;;;;;;;;;5069982;28;20353;-52
2021/10/10 11:02:54;;;;;;;7.65;3.30;;;;;;;;;;5071063;28;20017;-50
2021/10/10 11:05:31;;;;;;;6.47;3.05;;;;;;;;;;5069246;28;20025;-51
2021/10/10 11:07:57;;;;;;;9.45;4.05;;;;;;;;;;5070412;28;20025;-50
2021/10/10 11:10:23;;;;;;;6.57;2.88;;;;;;;;;;5069845;28;20032;-50
2021/10/10 11:12:55;;;;;;;10.43;3.58;;;;;;;;;;5067202;28;20149;-49
2021/10/10 11:15:21;;;;;;;7.20;3.47;;;;;;;;;;5068290;28;20036;-49
2021/10/10 11:17:55;;;;;;;5.43;3.08;;;;;;;;;;5070431;28;20711;-51
2021/10/10 11:20:21;;;;;;;9.13;3.78;;;;;;;;;;5059981;28;20041;-49
2021/10/10 11:22:47;;;;;;;7.88;3.30;;;;;;;;;;5066707;28;20110;-49
2021/10/10 11:25:13;;;;;;;9.50;3.05;;;;;;;;;;5064199;28;20445;-50
2021/10/10 11:27:40;;;;;;;5.95;3.10;;;;;;;;;;5070795;28;20115;-52
2021/10/10 11:30:07;;;;;;;6.60;3.53;;;;;;;;;;5067296;28;20103;-50
2021/10/10 11:32:33;;;;;;;9.93;3.45;;;;;;;;;;5072952;28;20026;-52
2021/10/10 11:34:59;;;;;;;6.50;3.17;;;;;;;;;;5075854;28;20109;-50
2021/10/10 11:37:25;;;;;;;5.60;2.92;;;;;;;;;;5074412;28;20159;-50
2021/10/10 11:39:51;;;;;;;8.55;3.05;;;;;;;;;;5072598;28;20735;-49
2021/10/10 11:42:17;;;;;;;6.00;3.08;;;;;;;;;;5071681;28;20020;-50
2021/10/10 11:44:44;;;;;;;6.88;3.60;;;;;;;;;;5075555;28;20512;-49
2021/10/10 11:47:25;;;;;;;8.23;3.03;;;;;;;;;;5075516;28;20093;-49
2021/10/10 11:49:59;;;;;;;6.20;3.50;;;;;;;;;;5075143;28;20024;-49
2021/10/10 11:52:32;;;;;;;7.70;3.15;;;;;;;;;;5075056;28;20103;-51
2021/10/10 11:55:21;;;;;;;5.78;3.30;;;;;;;;;;5071160;28;20067;-52
2021/10/10 11:57:57;;;;;;;6.47;3.28;;;;;;;;;;5073045;28;20031;-51
2021/10/10 12:00:27;;;;;;;7.40;3.22;;;;;;;;;;5073338;28;20121;-49
2021/10/10 12:02:53;;;;;;;5.43;3.00;;;;;;;;;;5062422;28;20025;-49
2021/10/10 12:05:23;;;;;;;9.73;3.53;;;;;;;;;;5074249;28;20021;-51
2021/10/10 12:07:52;;;;;;;6.90;3.13;;;;;;;;;;5070632;28;20039;-50
2021/10/10 12:10:19;;;;;;;7.35;3.15;;;;;;;;;;5068920;28;20483;-50
2021/10/10 12:12:46;;;;;;;6.53;3.00;;;;;;;;;;5073451;28;20411;-51
2021/10/10 12:15:12;;;;;;;;;;;;;;;;;;5067352;28;20032;-52
2021/10/10 12:17:39;;;;;;;4.45;2.20;;;;;;;;;;5073320;28;19962;-52
2021/10/10 12:20:21;;;;;;;4.50;2.38;;;;;;;;;;5069475;28;20105;-54
2021/10/10 12:22:48;;;;;;;5.45;2.58;;;;;;;;;;5071967;28;20118;-53
2021/10/10 12:25:33;;;;;;;4.50;2.38;;;;;;;;;;5072090;28;20081;-53
2021/10/10 12:28:04;;;;;;;5.47;2.92;;;;;;;;;;5074809;28;20024;-51
2021/10/10 12:30:36;;;;;;;5.00;2.83;;;;;;;;;;5074256;28;20036;-50
2021/10/10 12:33:21;;;;;;;5.25;2.08;;;;;;;;;;5073068;28;20356;-49
2021/10/10 12:36:03;;;;;;;4.85;1.52;;;;;;;;;;5069096;28;20032;-54
2021/10/10 12:38:34;;;;;;;3.87;2.40;;;;;;;;;;5069681;28;20022;-49
2021/10/10 12:41:00;;;;;;;3.40;1.83;;;;;;;;;;5069027;28;20274;-49
2021/10/10 12:43:38;;;;;;;5.55;2.08;;;;;;;;;;5069521;28;20476;-50
2021/10/10 12:46:04;;;;;;;4.85;2.33;;;;;;;;;;5071851;28;20127;-50
2021/10/10 12:48:30;;;;;;;3.80;1.95;;;;;;;;;;5073181;28;20029;-52
2021/10/10 12:50:57;;;;;;;3.75;2.05;;;;;;;;;;5072373;28;20056;-49
2021/10/10 12:53:36;;;;;;;5.28;2.42;;;;;;;;;;5069452;28;20032;-47
2021/10/10 12:56:18;;;;;;;4.68;2.53;;;;;;;;;;5062576;28;20100;-49
2021/10/10 12:58:54;;;;;;;3.33;2.15;;;;;;;;;;5075021;28;20020;-47
2021/10/10 13:01:22;;;;;;;6.32;2.28;;;;;;;;;;5066170;28;20058;-51
2021/10/10 13:03:48;;;;;;;5.65;2.70;;;;;;;;;;5064854;28;20032;-50
2021/10/10 13:06:15;;;;;;;6.38;2.60;;;;;;;;;;5072852;28;20078;-50
2021/10/10 13:08:48;;;;;;;5.60;2.63;;;;;;;;;;5069458;28;20029;-48
2021/10/10 13:11:15;;;;;;;3.90;2.65;;;;;;;;;;5080358;28;20036;-49
2021/10/10 13:13:41;;;;;;;7.63;2.60;;;;;;;;;;5062194;28;20025;-51
2021/10/10 13:16:07;;;;;;;5.43;2.70;;;;;;;;;;5076259;28;20016;-49
2021/10/10 13:18:33;;;;;;;5.07;2.65;;;;;;;;;;5073931;28;20397;-53
2021/10/10 13:20:59;;;;;;;4.00;2.53;;;;;;;;;;5063107;28;20044;-50
2021/10/10 13:23:25;;;;;;;5.88;3.10;;;;;;;;;;5073705;28;20458;-49
2021/10/10 13:25:51;;;;;;;4.05;2.00;;;;;;;;;;5073587;28;20033;-51
2021/10/10 13:28:17;;;;;;;4.50;2.40;;;;;;;;;;5071196;28;20119;-50
2021/10/10 13:30:44;;;;;;;5.72;2.70;;;;;;;;;;5073465;28;20685;-49
2021/10/10 13:33:10;;;;;;;2.95;1.88;;;;;;;;;;5073583;28;20388;-48
2021/10/10 13:35:39;;;;;;;6.30;2.40;;;;;;;;;;5068764;28;20032;-49
2021/10/10 13:38:06;;;;;;;5.82;2.60;;;;;;;;;;5069112;28;20036;-48
2021/10/10 13:40:32;;;;;;;3.90;1.85;;;;;;;;;;5070136;28;20064;-53
2021/10/10 13:42:58;;;;;;;5.72;2.55;;;;;;;;;;5068286;28;20391;-51
2021/10/10 13:45:24;;;;;;;3.90;1.80;;;;;;;;;;5069396;28;20035;-47
2021/10/10 13:47:50;;;;;;;4.90;2.40;;;;;;;;;;5077069;28;20025;-52
2021/10/10 13:50:16;;;;;;;3.53;1.85;;;;;;;;;;5066964;28;20443;-51
2021/10/10 13:52:42;;;;;;;5.43;2.58;;;;;;;;;;5071711;28;20117;-48
2021/10/10 13:55:08;;;;;;;3.97;1.95;;;;;;;;;;5073446;28;20115;-48
2021/10/10 13:57:36;;;;;;;11.98;2.80;;;;;;;;;;5066757;28;20908;-52
2021/10/10 14:00:04;;;;;;;4.35;2.47;;;;;;;;;;5071834;28;20025;-50
2021/10/10 14:02:30;;;;;;;4.85;2.40;;;;;;;;;;5072893;28;20029;-49
2021/10/10 14:04:56;;;;;;;4.07;2.17;;;;;;;;;;5070485;28;20056;-48
2021/10/10 14:07:22;;;;;;;5.35;2.10;;;;;;;;;;5062794;28;20024;-47
2021/10/10 14:09:48;;;;;;;5.82;2.28;;;;;;;;;;5072189;28;20028;-47
2021/10/10 14:12:17;;;;;;;3.13;1.95;;;;;;;;;;5072647;28;20530;-50
2021/10/10 14:14:43;;;;;;;4.20;2.10;;;;;;;;;;5072596;28;20029;-49
2021/10/10 14:17:09;;;;;;;4.72;2.03;;;;;;;;;;5070513;28;20166;-51
2021/10/10 14:19:35;;;;;;;4.45;1.88;;;;;;;;;;5071671;28;20052;-49
2021/10/10 14:22:01;;;;;;;5.88;2.25;;;;;;;;;;5067820;28;20033;-48
2021/10/10 14:24:27;;;;;;;5.55;2.85;;;;;;;;;;5068975;28;20041;-48
2021/10/10 14:26:53;;;;;;;5.50;2.38;;;;;;;;;;5071051;28;20029;-54
2021/10/10 14:29:19;;;;;;;6.78;2.10;;;;;;;;;;5069658;28;20032;-53
2021/10/10 14:31:45;;;;;;;7.03;3.08;;;;;;;;;;5067141;28;20024;-52
2021/10/10 14:34:11;;;;;;;3.83;2.33;;;;;;;;;;5068869;28;20028;-53
2021/10/10 14:36:37;;;;;;;4.65;2.60;;;;;;;;;;5070891;28;20036;-52
2021/10/10 14:39:04;;;;;;;5.88;2.53;;;;;;;;;;5068047;28;20099;-47